Time;durP1;ratioP1;P1;durP2;ratioP2;P2;SDS_P1;SDS_P2;PMS_P1;PMS_P2;Temp;Humidity;BMP_temperature;BMP_pressure;BME280_temperature;BME280_humidity;BME280_pressure;Samples;Min_cycle;Max_cycle;Signal;HPM_P1;HPM_P2
2021/09/16 00:01:48;;;;;;;1.95;0.30;;;9.90;99.90;;;;;;5008831;28;20124;-63
2021/09/16 00:04:15;;;;;;;0.63;0.50;;;9.90;99.90;;;;;;5010519;28;20103;-65
2021/09/16 00:06:42;;;;;;;1.15;0.65;;;9.90;99.90;;;;;;5010538;28;20452;-68
2021/09/16 00:09:09;;;;;;;0.68;0.30;;;9.90;99.90;;;;;;5010645;28;20077;-63
2021/09/16 00:11:36;;;;;;;0.43;0.40;;;9.90;99.90;;;;;;5009130;28;20097;-64
2021/09/16 00:14:03;;;;;;;8.68;1.17;;;9.90;99.90;;;;;;5010183;28;20061;-67
2021/09/16 00:16:30;;;;;;;0.80;0.50;;;9.90;99.90;;;;;;5010428;28;20057;-65
2021/09/16 00:18:57;;;;;;;0.55;0.55;;;9.90;99.90;;;;;;5010622;28;20099;-67
2021/09/16 00:21:24;;;;;;;1.10;0.75;;;9.80;99.90;;;;;;5010508;28;20076;-70
2021/09/16 00:23:50;;;;;;;0.95;0.60;;;9.90;99.90;;;;;;5009370;28;20045;-64
2021/09/16 00:26:17;;;;;;;1.30;0.77;;;9.80;99.90;;;;;;5010446;28;20065;-64
2021/09/16 00:28:44;;;;;;;1.35;0.47;;;9.80;99.90;;;;;;5010343;28;20140;-72
2021/09/16 00:31:11;;;;;;;0.55;0.40;;;9.80;99.90;;;;;;5010422;28;20431;-62
2021/09/16 00:33:38;;;;;;;1.15;0.40;;;9.80;99.90;;;;;;5008896;28;20464;-64
2021/09/16 00:36:05;;;;;;;4.00;1.20;;;9.80;99.90;;;;;;5010307;28;20049;-65
2021/09/16 00:38:32;;;;;;;0.60;0.55;;;9.80;99.90;;;;;;5010384;28;20069;-62
2021/09/16 00:40:59;;;;;;;1.38;0.32;;;9.80;99.90;;;;;;5010380;28;20433;-64
2021/09/16 00:43:26;;;;;;;1.05;0.55;;;9.90;99.90;;;;;;5009000;28;20111;-65
2021/09/16 00:46:01;;;;;;;0.52;0.30;;;9.90;99.90;;;;;;5010376;28;20076;-63
2021/09/16 00:48:28;;;;;;;0.80;0.30;;;9.90;99.90;;;;;;5010373;28;20092;-63
2021/09/16 00:50:55;;;;;;;1.40;0.38;;;9.90;99.90;;;;;;5010140;28;20073;-64
2021/09/16 00:53:23;;;;;;;2.28;0.50;;;9.90;99.90;;;;;;5010225;28;20089;-63
2021/09/16 00:55:51;;;;;;;3.40;0.35;;;9.90;99.90;;;;;;5009016;28;20046;-63
2021/09/16 00:58:20;;;;;;;1.70;1.00;;;9.90;99.90;;;;;;5010339;28;20125;-62
2021/09/16 01:00:47;;;;;;;2.40;0.73;;;9.90;99.90;;;;;;5009967;28;20074;-63
2021/09/16 01:03:14;;;;;;;2.85;0.40;;;9.90;99.90;;;;;;5009568;28;20149;-70
2021/09/16 01:05:41;;;;;;;0.50;0.40;;;9.90;99.90;;;;;;5008402;28;20057;-63
2021/09/16 01:08:08;;;;;;;1.27;0.38;;;10.00;99.90;;;;;;5009937;28;20038;-65
2021/09/16 01:10:35;;;;;;;0.50;0.40;;;9.90;99.90;;;;;;5011043;28;20069;-63
2021/09/16 01:13:02;;;;;;;3.40;0.30;;;10.00;99.90;;;;;;5013866;28;20121;-66
2021/09/16 01:15:29;;;;;;;1.15;0.55;;;10.00;99.90;;;;;;5012367;28;20136;-63
2021/09/16 01:17:56;;;;;;;1.13;0.38;;;10.00;99.90;;;;;;5013425;28;20069;-63
2021/09/16 01:20:24;;;;;;;1.45;0.65;;;10.00;99.90;;;;;;5013337;28;20041;-63
2021/09/16 01:22:51;;;;;;;0.40;0.28;;;10.00;99.90;;;;;;5013382;28;20092;-63
2021/09/16 01:25:24;;;;;;;1.35;0.50;;;10.00;99.90;;;;;;5013677;28;20118;-63
2021/09/16 01:27:53;;;;;;;0.47;0.45;;;10.00;99.90;;;;;;5012203;28;20096;-67
2021/09/16 01:30:21;;;;;;;0.73;0.45;;;10.10;99.90;;;;;;5013487;28;20041;-67
2021/09/16 01:32:50;;;;;;;0.25;0.20;;;10.10;99.90;;;;;;5013370;28;20484;-68
2021/09/16 01:35:17;;;;;;;0.57;0.30;;;10.10;99.90;;;;;;5013331;28;20507;-64
2021/09/16 01:37:44;;;;;;;0.90;0.47;;;10.10;99.90;;;;;;5011633;28;20129;-67
2021/09/16 01:40:11;;;;;;;0.28;0.20;;;10.10;99.90;;;;;;5013450;28;20424;-69
2021/09/16 01:42:43;;;;;;;0.52;0.30;;;10.10;99.90;;;;;;5013316;28;20042;-65
2021/09/16 01:45:18;;;;;;;0.30;0.30;;;10.10;99.90;;;;;;5013134;28;20191;-67
2021/09/16 01:47:46;;;;;;;0.30;0.30;;;10.10;99.90;;;;;;5011438;28;20042;-66
2021/09/16 01:50:16;;;;;;;1.85;0.50;;;10.10;99.90;;;;;;5012808;28;20061;-64
2021/09/16 01:52:43;;;;;;;0.40;0.23;;;10.10;99.90;;;;;;5012905;28;20049;-67
2021/09/16 01:55:11;;;;;;;1.48;0.73;;;10.20;99.90;;;;;;5012796;28;20211;-66
2021/09/16 01:57:38;;;;;;;0.38;0.22;;;10.20;99.90;;;;;;5011564;28;20049;-63
2021/09/16 02:00:07;;;;;;;0.77;0.70;;;10.20;99.90;;;;;;5012873;28;20473;-65
2021/09/16 02:02:40;;;;;;;1.40;0.50;;;10.20;99.90;;;;;;5012871;28;20045;-66
2021/09/16 02:05:08;;;;;;;0.20;0.20;;;10.20;99.90;;;;;;5012897;28;20128;-65
2021/09/16 02:07:34;;;;;;;0.47;0.20;;;10.20;99.90;;;;;;5011098;28;20074;-64
2021/09/16 02:10:03;;;;;;;1.95;0.38;;;10.30;99.90;;;;;;5012513;28;20038;-68
2021/09/16 02:12:30;;;;;;;0.63;0.32;;;10.30;99.90;;;;;;5012634;28;20503;-64
2021/09/16 02:14:57;;;;;;;0.82;0.82;;;10.30;99.90;;;;;;5012395;28;20117;-69
2021/09/16 02:17:24;;;;;;;0.80;0.38;;;10.40;99.90;;;;;;5012534;28;20038;-62
2021/09/16 02:19:51;;;;;;;3.60;0.60;;;10.40;99.90;;;;;;5011144;28;20064;-63
2021/09/16 02:22:18;;;;;;;0.98;0.50;;;10.40;99.90;;;;;;5011469;28;20077;-68
2021/09/16 02:24:45;;;;;;;0.95;0.38;;;10.40;99.90;;;;;;5012611;28;20149;-63
2021/09/16 02:27:11;;;;;;;1.42;0.38;;;10.50;99.90;;;;;;5010922;28;20133;-66
2021/09/16 02:29:38;;;;;;;0.98;0.50;;;10.50;99.90;;;;;;5011277;28;20381;-70
2021/09/16 02:32:06;;;;;;;1.25;0.40;;;10.50;99.90;;;;;;5012106;28;20061;-67
2021/09/16 02:34:33;;;;;;;0.85;0.30;;;10.50;99.90;;;;;;5012361;28;20053;-65
2021/09/16 02:36:59;;;;;;;0.75;0.22;;;10.60;99.90;;;;;;5012292;28;20088;-66
2021/09/16 02:39:26;;;;;;;1.00;0.57;;;10.60;99.90;;;;;;5010582;28;20446;-64
2021/09/16 02:41:53;;;;;;;1.00;0.50;;;10.60;99.90;;;;;;5011849;28;20104;-62
2021/09/16 02:44:20;;;;;;;2.00;0.50;;;10.70;99.90;;;;;;5012229;28;20444;-71
2021/09/16 02:46:47;;;;;;;0.30;0.30;;;10.70;99.90;;;;;;5012083;28;20073;-64
2021/09/16 02:49:14;;;;;;;0.60;0.50;;;10.80;99.90;;;;;;5012179;28;20132;-65
2021/09/16 02:51:41;;;;;;;1.02;0.40;;;10.80;99.90;;;;;;5010571;28;20065;-63
2021/09/16 02:54:08;;;;;;;7.22;0.77;;;10.80;99.90;;;;;;5011737;28;20098;-64
2021/09/16 02:56:35;;;;;;;1.20;0.50;;;10.80;99.90;;;;;;5011677;28;20546;-69
2021/09/16 02:59:02;;;;;;;1.88;0.55;;;10.90;99.90;;;;;;5011892;28;20084;-66
2021/09/16 03:01:29;;;;;;;2.38;0.80;;;10.90;99.90;;;;;;5010385;28;20050;-63
2021/09/16 03:03:56;;;;;;;0.70;0.55;;;10.90;99.90;;;;;;5011393;28;20377;-64
2021/09/16 03:06:23;;;;;;;3.30;0.60;;;10.90;99.90;;;;;;5011579;28;20570;-65
2021/09/16 03:08:50;;;;;;;1.48;1.38;;;10.90;99.90;;;;;;5011611;28;20046;-65
2021/09/16 03:11:17;;;;;;;0.77;0.40;;;10.90;99.90;;;;;;5011512;28;20116;-66
2021/09/16 03:13:44;;;;;;;1.70;0.77;;;10.90;99.90;;;;;;5010159;28;20080;-67
2021/09/16 03:16:11;;;;;;;0.52;0.50;;;10.90;99.90;;;;;;5011366;28;20077;-63
2021/09/16 03:18:37;;;;;;;1.83;0.68;;;10.90;99.90;;;;;;5011284;28;20120;-63
2021/09/16 03:21:04;;;;;;;0.77;0.65;;;10.90;99.90;;;;;;5011250;28;20125;-65
2021/09/16 03:23:31;;;;;;;2.20;1.85;;;10.90;99.90;;;;;;5009798;28;20096;-65
2021/09/16 03:25:58;;;;;;;1.05;0.45;;;10.90;99.90;;;;;;5011175;28;20069;-63
2021/09/16 03:28:25;;;;;;;4.70;0.73;;;10.90;99.90;;;;;;5011444;28;20412;-65
2021/09/16 03:30:52;;;;;;;4.53;0.80;;;11.00;99.90;;;;;;5011002;28;20389;-66
2021/09/16 03:33:19;;;;;;;7.35;0.68;;;11.00;99.90;;;;;;5011020;28;20543;-63
2021/09/16 03:35:46;;;;;;;1.98;0.90;;;11.00;99.90;;;;;;5009078;28;20061;-62
2021/09/16 03:38:13;;;;;;;2.60;0.60;;;11.00;99.90;;;;;;5010968;28;20125;-65
2021/09/16 03:40:40;;;;;;;1.70;0.68;;;11.00;99.90;;;;;;5010900;28;20050;-66
2021/09/16 03:43:07;;;;;;;5.35;0.85;;;11.00;99.90;;;;;;5011012;28;20129;-62
2021/09/16 03:45:34;;;;;;;1.52;0.70;;;11.00;99.90;;;;;;5008177;28;20106;-64
2021/09/16 03:48:01;;;;;;;3.30;0.70;;;11.00;99.90;;;;;;5010968;28;20418;-64
2021/09/16 03:50:28;;;;;;;0.90;0.70;;;11.10;99.90;;;;;;5011098;28;20076;-66
2021/09/16 03:52:55;;;;;;;3.17;0.75;;;11.10;99.90;;;;;;5010986;28;20052;-64
2021/09/16 03:55:21;;;;;;;1.58;0.80;;;11.10;99.90;;;;;;5010691;28;20519;-66
2021/09/16 03:57:48;;;;;;;2.20;0.68;;;11.10;99.90;;;;;;5009109;28;20117;-67
2021/09/16 04:00:15;;;;;;;2.88;0.55;;;11.10;99.90;;;;;;5010334;28;20068;-67
2021/09/16 04:02:42;;;;;;;5.93;1.33;;;11.20;99.90;;;;;;5010120;28;20102;-64
2021/09/16 04:05:09;;;;;;;4.53;1.42;;;11.20;99.90;;;;;;5009062;28;20065;-65
2021/09/16 04:07:37;;;;;;;6.55;1.67;;;11.20;99.90;;;;;;5009228;28;20138;-66
2021/09/16 04:10:05;;;;;;;3.28;0.88;;;11.20;99.90;;;;;;5010745;28;20484;-63
2021/09/16 04:12:32;;;;;;;1.52;1.27;;;11.20;99.90;;;;;;5010298;28;20073;-63
2021/09/16 04:14:59;;;;;;;1.35;0.70;;;11.30;99.90;;;;;;5010547;28;20089;-63
2021/09/16 04:17:27;;;;;;;2.92;1.00;;;11.30;99.90;;;;;;5009007;28;20137;-70
2021/09/16 04:19:53;;;;;;;1.45;0.98;;;11.30;99.90;;;;;;5010622;28;20454;-67
2021/09/16 04:22:20;;;;;;;4.32;1.23;;;11.30;99.90;;;;;;5010185;28;20573;-69
2021/09/16 04:24:47;;;;;;;1.13;0.93;;;11.30;99.90;;;;;;5010382;28;20069;-66
2021/09/16 04:27:14;;;;;;;0.95;0.68;;;11.30;99.90;;;;;;5010566;28;20049;-65
2021/09/16 04:29:41;;;;;;;5.88;1.35;;;11.30;99.90;;;;;;5009065;28;20042;-66
2021/09/16 04:32:09;;;;;;;2.53;1.20;;;11.30;99.90;;;;;;5010325;28;20054;-65
2021/09/16 04:34:36;;;;;;;5.80;1.73;;;11.30;99.90;;;;;;5010395;28;20096;-65
2021/09/16 04:37:04;;;;;;;2.75;1.00;;;11.30;99.90;;;;;;5010419;28;20069;-66
2021/09/16 04:39:31;;;;;;;2.25;1.00;;;11.30;99.90;;;;;;5009070;28;20081;-69
2021/09/16 04:41:58;;;;;;;4.45;1.20;;;11.30;99.90;;;;;;5010152;28;20058;-67
2021/09/16 04:44:24;;;;;;;1.73;1.10;;;11.30;99.90;;;;;;5010147;28;20128;-67
2021/09/16 04:46:51;;;;;;;2.33;1.00;;;11.30;99.90;;;;;;5013254;28;20046;-64
2021/09/16 04:49:18;;;;;;;3.53;1.73;;;11.30;99.90;;;;;;5014138;28;20492;-63
2021/09/16 04:51:45;;;;;;;2.38;1.10;;;11.30;99.90;;;;;;5012710;28;20081;-67
2021/09/16 04:54:12;;;;;;;3.08;1.17;;;11.30;99.90;;;;;;5014085;28;20102;-64
2021/09/16 04:56:39;;;;;;;3.42;1.10;;;11.30;99.90;;;;;;5014265;28;20445;-63
2021/09/16 04:59:06;;;;;;;2.13;1.25;;;11.40;99.90;;;;;;5014100;28;20092;-68
2021/09/16 05:01:33;;;;;;;13.43;2.47;;;11.40;99.90;;;;;;5012381;28;20125;-67
2021/09/16 05:04:00;;;;;;;1.70;1.13;;;11.40;99.90;;;;;;5013454;28;20038;-69
2021/09/16 05:06:26;;;;;;;2.95;1.77;;;11.50;99.90;;;;;;5013731;28;20066;-69
2021/09/16 05:08:53;;;;;;;1.27;1.17;;;11.60;99.90;;;;;;5013798;28;20042;-68
2021/09/16 05:11:20;;;;;;;2.13;1.42;;;11.60;99.90;;;;;;5013847;28;20052;-69
2021/09/16 05:13:47;;;;;;;2.05;1.40;;;11.70;99.90;;;;;;5012295;28;20058;-66
2021/09/16 05:16:14;;;;;;;3.53;1.55;;;11.70;99.90;;;;;;5013709;28;20134;-70
2021/09/16 05:18:41;;;;;;;3.97;1.27;;;11.80;99.90;;;;;;5013648;28;20081;-65
2021/09/16 05:21:08;;;;;;;4.68;2.55;;;11.90;99.90;;;;;;5013531;28;20097;-69
2021/09/16 05:23:35;;;;;;;4.97;1.50;;;11.90;99.90;;;;;;5012230;28;20492;-63
2021/09/16 05:26:02;;;;;;;3.95;0.90;;;12.00;99.90;;;;;;5013575;28;20176;-63
2021/09/16 05:28:30;;;;;;;2.95;1.40;;;12.00;99.90;;;;;;5013269;28;20038;-62
2021/09/16 05:30:57;;;;;;;3.58;1.60;;;12.10;99.90;;;;;;5013206;28;20489;-65
2021/09/16 05:33:24;;;;;;;5.22;1.75;;;12.10;99.90;;;;;;5013251;28;20096;-67
2021/09/16 05:35:50;;;;;;;3.20;1.67;;;12.20;99.90;;;;;;5011814;28;20539;-70
2021/09/16 05:38:17;;;;;;;4.65;2.15;;;12.20;99.90;;;;;;5013124;28;20461;-70
2021/09/16 05:40:44;;;;;;;2.92;1.52;;;12.30;99.90;;;;;;5013169;28;20412;-68
2021/09/16 05:43:11;;;;;;;2.30;1.38;;;12.30;99.90;;;;;;5013200;28;20074;-63
2021/09/16 05:45:39;;;;;;;3.80;2.33;;;12.30;99.90;;;;;;5011712;28;20129;-68
2021/09/16 05:48:06;;;;;;;3.97;1.33;;;12.40;99.90;;;;;;5012781;28;20424;-68
2021/09/16 05:50:34;;;;;;;2.42;1.73;;;12.40;99.90;;;;;;5012770;28;20060;-64
2021/09/16 05:53:01;;;;;;;3.30;1.70;;;12.40;99.90;;;;;;5012843;28;20078;-65
2021/09/16 05:55:28;;;;;;;3.47;1.85;;;12.50;99.90;;;;;;5011573;28;20085;-67
2021/09/16 05:57:56;;;;;;;4.00;1.60;;;12.50;99.90;;;;;;5011754;28;20045;-65
2021/09/16 06:00:23;;;;;;;7.18;2.08;;;12.60;99.90;;;;;;5012901;28;20579;-66
2021/09/16 06:02:51;;;;;;;6.15;2.17;;;12.60;99.90;;;;;;5012421;28;20057;-64
2021/09/16 06:05:18;;;;;;;4.22;2.17;;;12.60;99.90;;;;;;5012622;28;20061;-69
2021/09/16 06:07:44;;;;;;;4.13;1.83;;;12.60;99.90;;;;;;5011119;28;20076;-63
2021/09/16 06:10:14;;;;;;;4.53;1.83;;;12.60;99.90;;;;;;5012619;28;20041;-64
2021/09/16 06:12:41;;;;;;;5.25;1.48;;;12.70;99.90;;;;;;5012500;28;20056;-65
2021/09/16 06:15:09;;;;;;;2.65;1.55;;;12.70;99.90;;;;;;5012775;28;20050;-65
2021/09/16 06:17:36;;;;;;;3.42;1.58;;;12.70;99.90;;;;;;5011350;28;20046;-66
2021/09/16 06:20:08;;;;;;;2.88;1.50;;;12.70;99.90;;;;;;5012354;28;20042;-65
2021/09/16 06:22:35;;;;;;;4.53;2.13;;;12.80;99.90;;;;;;5012545;28;20073;-66
2021/09/16 06:25:03;;;;;;;6.70;1.77;;;12.80;99.90;;;;;;5012565;28;20053;-68
2021/09/16 06:27:30;;;;;;;5.32;2.10;;;12.80;99.90;;;;;;5011240;28;20045;-67
2021/09/16 06:29:58;;;;;;;3.20;1.73;;;12.80;99.90;;;;;;5012529;28;20460;-66
2021/09/16 06:32:25;;;;;;;3.20;1.15;;;12.80;99.90;;;;;;5012180;28;20108;-70
2021/09/16 06:34:52;;;;;;;5.47;1.83;;;12.80;99.90;;;;;;5012310;28;20054;-65
2021/09/16 06:37:18;;;;;;;5.10;1.38;;;12.90;99.90;;;;;;5012366;28;20054;-67
2021/09/16 06:39:47;;;;;;;6.00;1.33;;;12.90;99.90;;;;;;5010956;28;20514;-62
2021/09/16 06:42:14;;;;;;;4.85;1.52;;;12.90;99.90;;;;;;5011822;28;20042;-69
2021/09/16 06:44:41;;;;;;;3.28;1.20;;;12.90;99.90;;;;;;5012172;28;20177;-63
2021/09/16 06:47:08;;;;;;;8.40;1.80;;;12.90;99.90;;;;;;5012047;28;20054;-66
2021/09/16 06:49:40;;;;;;;6.70;1.83;;;12.90;99.90;;;;;;5010585;28;20077;-68
2021/09/16 06:52:07;;;;;;;5.15;2.15;;;13.00;99.90;;;;;;5011767;28;20050;-67
2021/09/16 06:54:34;;;;;;;8.70;1.20;;;12.90;99.90;;;;;;5011610;28;20116;-71
2021/09/16 06:57:01;;;;;;;3.20;1.67;;;13.00;99.90;;;;;;5011816;28;20380;-69
2021/09/16 06:59:28;;;;;;;5.75;1.95;;;13.00;99.90;;;;;;5010160;28;20053;-66
2021/09/16 07:01:55;;;;;;;8.75;1.73;;;13.00;99.90;;;;;;5011279;28;20195;-70
2021/09/16 07:04:22;;;;;;;3.13;1.48;;;13.00;99.90;;;;;;5010861;28;20041;-70
2021/09/16 07:06:49;;;;;;;4.93;1.63;;;13.00;99.90;;;;;;5008514;28;20129;-73
2021/09/16 07:09:16;;;;;;;5.63;2.50;;;13.10;99.90;;;;;;5008167;28;20050;-67
2021/09/16 07:11:43;;;;;;;3.33;2.50;;;13.10;99.90;;;;;;5006966;28;20041;-69
2021/09/16 07:14:10;;;;;;;2.70;1.58;;;13.20;99.90;;;;;;5008319;28;20099;-66
2021/09/16 07:16:37;;;;;;;3.53;1.58;;;13.20;99.90;;;;;;5008326;28;20054;-75
2021/09/16 07:19:04;;;;;;;3.92;1.30;;;13.20;99.90;;;;;;5008229;28;20054;-66
2021/09/16 07:21:31;;;;;;;5.55;1.15;;;13.30;99.90;;;;;;5007068;28;20464;-69
2021/09/16 07:23:58;;;;;;;3.88;1.67;;;13.30;99.90;;;;;;5008189;28;20053;-73
2021/09/16 07:26:25;;;;;;;4.03;1.20;;;13.40;99.90;;;;;;5008074;28;20049;-71
2021/09/16 07:28:57;;;;;;;3.17;1.52;;;13.50;99.90;;;;;;5008164;28;20050;-74
2021/09/16 07:31:24;;;;;;;6.22;1.45;;;13.50;99.90;;;;;;5008212;28;20108;-75
2021/09/16 07:33:52;;;;;;;3.75;2.42;;;13.60;99.90;;;;;;5007065;28;20046;-64
2021/09/16 07:36:18;;;;;;;2.85;1.27;;;13.60;99.90;;;;;;5010794;28;20364;-63
2021/09/16 07:38:46;;;;;;;2.88;1.80;;;13.60;99.90;;;;;;5011473;28;20400;-68
2021/09/16 07:41:14;;;;;;;2.30;1.92;;;13.70;99.90;;;;;;5011651;28;20050;-65
2021/09/16 07:43:41;;;;;;;3.78;1.70;;;13.70;99.90;;;;;;5009872;28;20119;-69
2021/09/16 07:46:08;;;;;;;2.42;1.42;;;13.80;99.90;;;;;;5011157;28;20042;-67
2021/09/16 07:48:35;;;;;;;4.78;1.55;;;13.80;99.90;;;;;;5011232;28;20124;-62
2021/09/16 07:51:02;;;;;;;5.22;1.45;;;13.80;99.90;;;;;;5011381;28;20038;-65
2021/09/16 07:53:30;;;;;;;4.65;1.73;;;13.80;99.90;;;;;;5009672;28;20046;-70
2021/09/16 07:55:59;;;;;;;4.30;1.23;;;13.90;99.90;;;;;;5011085;28;20050;-62
2021/09/16 07:58:26;;;;;;;3.30;1.40;;;13.90;99.90;;;;;;5011317;28;20509;-64
2021/09/16 08:00:53;;;;;;;2.92;1.48;;;13.90;99.90;;;;;;5026181;28;20487;-65
2021/09/16 08:03:21;;;;;;;3.05;1.33;;;13.90;99.90;;;;;;5010413;28;20085;-71
2021/09/16 08:05:48;;;;;;;2.67;1.33;;;14.00;99.90;;;;;;5010574;28;20037;-65
2021/09/16 08:08:15;;;;;;;2.30;1.20;;;14.00;99.90;;;;;;5012360;28;20053;-68
2021/09/16 08:10:42;;;;;;;3.53;1.30;;;14.10;99.90;;;;;;5011538;28;20187;-65
2021/09/16 08:13:09;;;;;;;3.72;1.20;;;14.10;99.90;;;;;;5012083;28;20053;-64
2021/09/16 08:15:36;;;;;;;4.35;1.33;;;14.10;99.90;;;;;;5009934;28;20157;-65
2021/09/16 08:18:03;;;;;;;2.22;1.45;;;14.20;99.90;;;;;;5013125;28;20503;-66
2021/09/16 08:20:31;;;;;;;2.47;1.55;;;14.20;99.90;;;;;;5012179;28;20046;-66
2021/09/16 08:22:58;;;;;;;3.92;1.25;;;14.20;99.90;;;;;;5013840;28;20372;-68
2021/09/16 08:25:25;;;;;;;5.65;1.80;;;14.30;99.90;;;;;;5014125;28;20546;-69
2021/09/16 08:27:52;;;;;;;2.55;1.73;;;14.30;99.90;;;;;;5011483;28;20049;-64
2021/09/16 08:30:19;;;;;;;3.05;1.40;;;14.40;99.90;;;;;;5010840;28;20046;-63
2021/09/16 08:32:48;;;;;;;2.78;1.10;;;14.40;99.90;;;;;;5011324;28;20379;-65
2021/09/16 08:35:15;;;;;;;5.53;1.60;;;14.40;99.90;;;;;;5011391;28;20053;-63
2021/09/16 08:37:42;;;;;;;4.40;1.73;;;14.40;99.90;;;;;;5009193;28;20050;-64
2021/09/16 08:40:10;;;;;;;7.13;2.33;;;14.30;99.90;;;;;;5010505;28;20465;-63
2021/09/16 08:42:40;;;;;;;3.25;1.25;;;14.30;99.90;;;;;;5010576;28;20118;-64
2021/09/16 08:45:13;;;;;;;4.50;1.60;;;14.30;99.90;;;;;;5010689;28;20046;-67
2021/09/16 08:47:45;;;;;;;4.30;1.45;;;14.30;99.90;;;;;;5008868;28;20125;-65
2021/09/16 08:50:14;;;;;;;2.55;1.83;;;14.30;99.90;;;;;;5010068;28;20042;-70
2021/09/16 08:52:43;;;;;;;5.75;1.35;;;14.30;99.90;;;;;;5010012;28;20058;-67
2021/09/16 08:55:12;;;;;;;2.47;1.17;;;14.30;99.90;;;;;;5010656;28;20046;-64
2021/09/16 08:57:43;;;;;;;4.65;1.27;;;14.30;99.90;;;;;;5009039;28;20061;-63
2021/09/16 09:00:10;;;;;;;;;;;14.30;99.90;;;;;;5010661;28;20046;-67
2021/09/16 09:02:38;;;;;;;3.47;1.92;;;14.30;99.90;;;;;;5010120;28;19921;-64
2021/09/16 09:05:08;;;;;;;17.45;1.77;;;14.20;99.90;;;;;;5010303;28;20507;-64
2021/09/16 09:07:46;;;;;;;8.70;1.63;;;14.20;99.90;;;;;;5009050;28;20049;-64
2021/09/16 09:10:32;;;;;;;6.93;1.98;;;14.10;99.90;;;;;;5010098;28;20096;-66
2021/09/16 09:12:59;;;;;;;3.35;1.85;;;14.10;99.90;;;;;;5010316;28;20530;-64
2021/09/16 09:15:27;;;;;;;7.32;1.95;;;14.10;99.90;;;;;;5008823;28;20060;-68
2021/09/16 09:18:09;;;;;;;1.35;1.25;;;14.00;99.90;;;;;;5010136;28;20076;-66
2021/09/16 09:21:04;;;;;;;7.25;1.75;;;14.00;99.90;;;;;;5010280;28;20053;-63
2021/09/16 09:23:33;;;;;;;3.13;1.80;;;14.00;99.90;;;;;;5008848;28;20053;-64
2021/09/16 09:26:21;;;;;;;3.90;1.83;;;14.00;99.90;;;;;;5010044;28;20038;-67
2021/09/16 09:28:50;;;;;;;5.88;1.40;;;13.90;99.90;;;;;;5009959;28;20046;-64
2021/09/16 09:31:25;;;;;;;2.13;1.55;;;13.90;99.90;;;;;;5010606;28;20049;-65
2021/09/16 09:33:53;;;;;;;3.17;1.63;;;13.80;99.90;;;;;;5012659;28;20125;-69
2021/09/16 09:36:22;;;;;;;3.08;1.58;;;13.80;99.90;;;;;;5013756;28;20049;-63
2021/09/16 09:38:57;;;;;;;2.53;1.08;;;13.80;99.90;;;;;;5013380;28;20050;-63
2021/09/16 09:41:31;;;;;;;3.38;1.30;;;13.70;99.90;;;;;;5013603;28;20046;-64
2021/09/16 09:44:13;;;;;;;3.35;1.30;;;13.70;99.90;;;;;;5012184;28;20050;-63
2021/09/16 09:46:59;;;;;;;1.88;1.20;;;13.70;99.90;;;;;;5013494;28;20496;-64
2021/09/16 09:49:26;;;;;;;3.50;1.02;;;13.70;99.90;;;;;;5013513;28;20045;-68
2021/09/16 09:51:56;;;;;;;3.67;1.05;;;13.70;99.90;;;;;;5012265;28;20080;-63
2021/09/16 09:54:39;;;;;;;4.35;2.28;;;13.70;99.90;;;;;;5013199;28;20407;-71
2021/09/16 09:57:13;;;;;;;6.03;1.70;;;13.70;99.90;;;;;;5013493;28;20049;-63
2021/09/16 10:00:07;;;;;;;2.13;1.23;;;13.60;99.90;;;;;;5010565;28;20124;-64
2021/09/16 10:02:52;;;;;;;3.47;1.33;;;13.60;99.90;;;;;;5012708;28;20392;-67
2021/09/16 10:05:27;;;;;;;2.30;0.77;;;13.60;99.90;;;;;;5013188;28;20037;-62
2021/09/16 10:08:10;;;;;;;3.08;1.65;;;13.60;99.90;;;;;;5011606;28;20073;-63
2021/09/16 10:10:39;;;;;;;3.08;1.25;;;13.60;99.90;;;;;;5015494;28;20052;-65
2021/09/16 10:13:08;;;;;;;6.30;1.40;;;13.60;99.90;;;;;;5013272;28;20062;-67
2021/09/16 10:15:36;;;;;;;3.05;1.27;;;13.60;99.90;;;;;;5011519;28;20046;-63
2021/09/16 10:18:03;;;;;;;2.10;1.48;;;13.60;99.90;;;;;;5012918;28;20458;-65
2021/09/16 10:20:30;;;;;;;3.03;1.42;;;13.60;99.90;;;;;;5012880;28;20050;-67
2021/09/16 10:23:00;;;;;;;1.77;0.98;;;13.60;99.90;;;;;;5012582;28;20104;-63
2021/09/16 10:25:28;;;;;;;1.42;0.95;;;13.70;99.90;;;;;;5011328;28;20050;-71
2021/09/16 10:28:06;;;;;;;2.45;1.25;;;13.70;99.90;;;;;;5012401;28;20049;-68
2021/09/16 10:30:53;;;;;;;2.53;1.05;;;13.70;99.90;;;;;;5012491;28;20458;-64
2021/09/16 10:33:23;;;;;;;0.85;0.85;;;13.70;99.90;;;;;;5012940;28;20401;-66
2021/09/16 10:35:59;;;;;;;3.08;1.38;;;13.70;99.90;;;;;;5010853;28;20053;-65
2021/09/16 10:38:36;;;;;;;2.03;1.13;;;13.70;99.90;;;;;;5012606;28;20467;-63
2021/09/16 10:41:19;;;;;;;2.15;1.00;;;13.70;99.90;;;;;;5012544;28;20054;-66
2021/09/16 10:43:58;;;;;;;3.40;1.30;;;13.70;99.90;;;;;;5010204;28;23086;-67
2021/09/16 10:46:41;;;;;;;4.35;1.25;;;13.70;99.90;;;;;;5012302;28;20133;-63
2021/09/16 10:49:23;;;;;;;3.70;1.05;;;13.60;99.90;;;;;;5012387;28;20530;-63
2021/09/16 10:52:02;;;;;;;2.38;1.40;;;13.60;99.90;;;;;;5010853;28;20048;-67
2021/09/16 10:54:34;;;;;;;6.22;2.08;;;13.70;99.90;;;;;;5012039;28;20041;-63
2021/09/16 10:57:04;;;;;;;1.40;0.73;;;13.70;99.90;;;;;;5012440;28;20046;-63
2021/09/16 10:59:52;;;;;;;3.63;0.82;;;13.70;99.90;;;;;;5010331;28;20081;-68
2021/09/16 11:02:29;;;;;;;1.77;0.90;;;13.70;99.90;;;;;;5011856;28;20453;-63
2021/09/16 11:04:56;;;;;;;3.90;1.30;;;13.70;99.90;;;;;;5011852;28;20053;-64
2021/09/16 11:07:32;;;;;;;2.28;1.10;;;13.70;99.90;;;;;;5011920;28;20400;-67
2021/09/16 11:10:15;;;;;;;5.50;1.05;;;13.70;99.90;;;;;;5010218;28;20065;-69
2021/09/16 11:13:23;;;;;;;5.80;1.05;;;13.70;99.90;;;;;;5011747;28;20103;-71
2021/09/16 11:15:53;;;;;;;4.03;1.10;;;13.70;99.90;;;;;;5009037;28;20046;-63
2021/09/16 11:18:40;;;;;;;3.03;1.00;;;13.60;99.90;;;;;;5011549;28;20104;-64
2021/09/16 11:21:07;;;;;;;6.00;1.15;;;13.60;99.90;;;;;;5011602;28;20054;-64
2021/09/16 11:23:45;;;;;;;4.00;1.27;;;13.60;99.90;;;;;;5010107;28;20073;-67
2021/09/16 11:26:18;;;;;;;3.65;1.05;;;13.60;99.90;;;;;;5011403;28;20049;-67
2021/09/16 11:28:55;;;;;;;1.60;0.85;;;13.60;99.90;;;;;;5011182;28;20053;-64
2021/09/16 11:31:23;;;;;;;4.32;1.10;;;13.60;99.90;;;;;;5011350;28;20112;-67
2021/09/16 11:34:02;;;;;;;3.60;1.67;;;13.50;99.90;;;;;;5009916;28;20046;-66
2021/09/16 11:36:29;;;;;;;6.63;1.20;;;13.50;99.90;;;;;;5009901;28;20535;-65
2021/09/16 11:39:16;;;;;;;2.20;1.25;;;13.50;99.90;;;;;;5011104;28;20046;-66
2021/09/16 11:41:43;;;;;;;1.15;0.88;;;13.50;99.90;;;;;;5009793;28;20046;-70
2021/09/16 11:44:11;;;;;;;2.47;1.15;;;13.50;99.90;;;;;;5010865;28;20431;-64
2021/09/16 11:46:38;;;;;;;2.15;1.40;;;13.40;99.90;;;;;;5010939;28;20080;-63
2021/09/16 11:49:05;;;;;;;3.10;1.55;;;13.40;99.90;;;;;;5010858;28;20104;-64
2021/09/16 11:51:32;;;;;;;4.60;0.95;;;13.40;99.90;;;;;;5009477;28;20046;-65
2021/09/16 11:54:10;;;;;;;6.40;1.30;;;13.30;99.90;;;;;;5010628;28;20045;-66
2021/09/16 11:56:37;;;;;;;4.70;1.00;;;13.30;99.90;;;;;;5010279;28;20076;-67
2021/09/16 11:59:08;;;;;;;4.97;1.48;;;13.20;99.90;;;;;;5010919;28;20421;-66
2021/09/16 12:01:35;;;;;;;3.05;1.15;;;13.20;99.90;;;;;;5009410;28;20396;-67
2021/09/16 12:04:03;;;;;;;2.22;1.08;;;13.20;99.90;;;;;;5010444;28;20107;-67
2021/09/16 12:06:37;;;;;;;1.52;1.10;;;13.20;99.90;;;;;;5010467;28;20046;-64
2021/09/16 12:09:04;;;;;;;3.83;1.40;;;13.20;99.90;;;;;;5010636;28;20073;-66
2021/09/16 12:11:31;;;;;;;2.92;1.00;;;13.20;99.90;;;;;;5009439;28;20404;-66
2021/09/16 12:14:01;;;;;;;4.03;1.50;;;13.20;99.90;;;;;;5010639;28;20046;-70
2021/09/16 12:16:33;;;;;;;7.53;1.97;;;13.30;99.90;;;;;;5010690;28;20053;-63
2021/09/16 12:19:07;;;;;;;2.63;1.38;;;13.30;99.90;;;;;;5010806;28;20279;-68
2021/09/16 12:21:41;;;;;;;3.15;1.23;;;13.30;99.90;;;;;;5009276;28;20045;-66
2021/09/16 12:24:20;;;;;;;3.70;1.63;;;13.30;99.90;;;;;;5010407;28;20112;-64
2021/09/16 12:26:49;;;;;;;2.80;1.08;;;13.30;99.90;;;;;;5010605;28;20112;-72
2021/09/16 12:29:24;;;;;;;3.70;1.15;;;13.40;99.90;;;;;;5010507;28;20046;-63
2021/09/16 12:31:59;;;;;;;3.80;1.10;;;13.40;99.90;;;;;;5009000;28;20080;-64
2021/09/16 12:34:31;;;;;;;1.58;1.00;;;13.40;99.90;;;;;;5010531;28;20117;-63
2021/09/16 12:37:04;;;;;;;1.63;1.38;;;13.40;99.90;;;;;;5010003;28;20046;-66
2021/09/16 12:39:46;;;;;;;1.75;1.10;;;13.50;99.90;;;;;;5008785;28;20053;-64
2021/09/16 12:42:24;;;;;;;2.60;1.08;;;13.50;99.90;;;;;;5010398;28;20411;-67
2021/09/16 12:44:51;;;;;;;3.63;1.23;;;13.50;99.90;;;;;;5010232;28;20046;-63
2021/09/16 12:47:18;;;;;;;3.17;1.17;;;13.50;99.90;;;;;;5010352;28;20104;-68
2021/09/16 12:49:45;;;;;;;3.92;1.10;;;13.50;99.90;;;;;;5008840;28;20046;-67
2021/09/16 12:52:23;;;;;;;1.80;1.17;;;13.60;99.90;;;;;;5009945;28;20113;-67
2021/09/16 12:54:54;;;;;;;4.05;1.83;;;13.60;99.90;;;;;;5010456;28;20054;-66
2021/09/16 12:57:24;;;;;;;2.83;1.25;;;13.60;99.90;;;;;;5010150;28;20046;-65
2021/09/16 12:59:53;;;;;;;2.50;1.08;;;13.60;99.90;;;;;;5008371;28;20338;-65